createdAt,value
2023-04-20T00:02:36.952Z,6.59
2023-04-20T00:08:38.955Z,6.46
2023-04-20T00:14:40.926Z,6.27
2023-04-20T00:20:42.791Z,6.33
2023-04-20T00:26:44.717Z,6.40
2023-04-20T00:32:46.631Z,6.12
2023-04-20T00:38:48.626Z,6.02
2023-04-20T00:44:50.996Z,6.09
2023-04-20T00:50:53.084Z,6.07
2023-04-20T00:56:57.940Z,5.82
2023-04-20T01:03:00.222Z,6.17
2023-04-20T01:09:02.313Z,6.02
2023-04-20T01:15:06.038Z,5.92
2023-04-20T01:21:08.684Z,5.91
2023-04-20T01:27:10.555Z,5.64
2023-04-20T01:33:12.410Z,5.62
2023-04-20T01:39:14.394Z,5.64
2023-04-20T01:45:16.360Z,5.56
2023-04-20T01:51:18.227Z,5.71
2023-04-20T01:57:20.181Z,5.63
2023-04-20T02:03:22.244Z,5.55
2023-04-20T02:09:24.404Z,5.52
2023-04-20T02:15:26.317Z,5.56
2023-04-20T02:21:28.251Z,5.37
2023-04-20T02:27:30.718Z,5.48
2023-04-20T02:33:32.611Z,5.36
2023-04-20T02:39:34.483Z,5.55
2023-04-20T02:45:36.907Z,5.76
2023-04-20T02:51:38.788Z,5.78
2023-04-20T02:57:40.669Z,5.80
2023-04-20T03:03:42.646Z,5.92
2023-04-20T03:09:44.787Z,6.16
2023-04-20T03:15:46.758Z,6.07
2023-04-20T03:21:48.706Z,6.17
2023-04-20T03:27:50.565Z,6.33
2023-04-20T03:33:52.446Z,6.14
2023-04-20T03:39:54.327Z,6.10
2023-04-20T03:45:56.275Z,6.17
2023-04-20T03:51:58.164Z,6.07
2023-04-20T03:58:00.044Z,5.88
2023-04-20T04:04:02.144Z,6.07
2023-04-20T04:10:05.883Z,6.06
2023-04-20T04:16:07.868Z,6.20
2023-04-20T04:22:09.998Z,6.06
2023-04-20T04:28:12.550Z,6.12
2023-04-20T04:34:14.457Z,6.07
2023-04-20T04:40:16.463Z,6.06
2023-04-20T04:46:18.711Z,5.97
2023-04-20T04:52:21.693Z,6.18
2023-04-20T04:58:23.641Z,6.32
2023-04-20T05:04:25.610Z,6.59
2023-04-20T05:10:27.874Z,6.55
2023-04-20T05:16:29.870Z,6.51
2023-04-20T05:22:31.823Z,6.44
2023-04-20T05:28:34.788Z,6.54
2023-04-20T05:34:36.683Z,6.56
2023-04-20T05:40:38.684Z,6.77
2023-04-20T05:46:40.775Z,6.88
2023-04-20T05:52:42.636Z,6.85
2023-04-20T05:58:44.806Z,7.01
2023-04-20T06:04:46.840Z,7.08
2023-04-20T06:10:48.900Z,7.14
2023-04-20T06:16:50.876Z,7.33
2023-04-20T06:22:52.997Z,7.70
2023-04-20T06:28:54.889Z,7.87
2023-04-20T06:34:56.788Z,8.89
2023-04-20T06:41:01.989Z,9.38
2023-04-20T06:47:04.105Z,9.37
2023-04-20T06:53:06.336Z,9.35
2023-04-20T06:59:08.248Z,9.13
2023-04-20T07:05:11.405Z,9.11
2023-04-20T07:11:13.469Z,8.90
2023-04-20T07:17:19.416Z,9.00
2023-04-20T07:23:21.420Z,9.27
2023-04-20T07:29:23.340Z,9.51
2023-04-20T07:35:25.516Z,9.36
2023-04-20T07:41:27.482Z,9.09
2023-04-20T07:47:29.739Z,9.22
2023-04-20T07:53:31.772Z,9.09
2023-04-20T07:59:33.712Z,9.28
2023-04-20T08:05:38.659Z,9.60
2023-04-20T08:11:41.113Z,9.77
2023-04-20T08:17:43.128Z,9.80
2023-04-20T08:23:45.157Z,10.01
2023-04-20T08:29:47.053Z,9.91
2023-04-20T08:35:54.461Z,10.28
2023-04-20T08:41:57.379Z,10.26
2023-04-20T08:48:03.051Z,9.92
2023-04-20T08:54:06.580Z,9.85
2023-04-20T09:00:13.885Z,10.66
2023-04-20T09:06:18.509Z,10.89
2023-04-20T09:12:22.553Z,11.00
2023-04-20T09:18:24.855Z,10.95
2023-04-20T09:24:35.225Z,10.79
2023-04-20T09:30:48.988Z,11.21
2023-04-20T09:36:55.494Z,10.76
2023-04-20T09:43:04.058Z,10.64
2023-04-20T09:49:08.603Z,11.00
2023-04-20T09:55:11.134Z,11.30
2023-04-20T10:01:13.619Z,11.68
2023-04-20T10:07:27.700Z,13.32
2023-04-20T10:13:34.107Z,15.12
2023-04-20T10:19:45.996Z,14.12
2023-04-20T10:26:00.883Z,14.72
2023-04-20T10:32:03.354Z,13.97
2023-04-20T10:38:05.392Z,13.01
2023-04-20T10:44:08.956Z,13.15
2023-04-20T10:50:15.954Z,13.30
2023-04-20T10:56:17.871Z,13.15
2023-04-20T11:02:19.919Z,12.42
2023-04-20T11:08:21.922Z,12.48
2023-04-20T11:14:24.221Z,13.87
2023-04-20T11:20:26.121Z,16.03
2023-04-20T11:26:38.262Z,17.93
2023-04-20T11:32:40.395Z,18.38
2023-04-20T11:38:42.454Z,16.05
2023-04-20T11:44:44.334Z,14.54
2023-04-20T11:50:46.294Z,15.25
2023-04-20T11:56:48.657Z,16.31
2023-04-20T12:02:51.793Z,14.82
2023-04-20T12:08:53.724Z,15.59
2023-04-20T12:14:55.818Z,18.50
2023-04-20T12:20:57.682Z,19.63
2023-04-20T12:26:59.613Z,19.70
2023-04-20T12:33:03.516Z,21.06
2023-04-20T12:39:05.635Z,19.85
2023-04-20T12:45:08.394Z,19.51
2023-04-20T12:51:10.464Z,19.30
2023-04-20T12:57:12.385Z,18.13
2023-04-20T13:03:14.395Z,17.07
2023-04-20T13:09:16.454Z,16.01
2023-04-20T13:15:31.916Z,14.95
2023-04-20T13:21:39.836Z,13.95
2023-04-20T13:27:41.726Z,13.54
2023-04-20T13:33:43.645Z,13.23
2023-04-20T13:39:45.596Z,12.85
2023-04-20T13:45:47.600Z,12.55
2023-04-20T13:51:50.293Z,12.44
2023-04-20T13:57:52.420Z,12.44
2023-04-20T14:03:55.725Z,12.10
2023-04-20T14:09:59.835Z,11.54
2023-04-20T14:16:01.789Z,11.68
2023-04-20T14:22:03.726Z,11.46
2023-04-20T14:28:05.700Z,11.37
2023-04-20T14:34:09.321Z,11.50
2023-04-20T14:40:11.950Z,11.66
2023-04-20T14:46:14.017Z,11.60
2023-04-20T14:52:15.963Z,11.39
2023-04-20T14:58:19.432Z,11.08
2023-04-20T15:04:21.637Z,11.05
2023-04-20T15:10:23.914Z,10.97
2023-04-20T15:16:25.825Z,11.03
2023-04-20T15:22:27.750Z,10.76
2023-04-20T15:28:29.652Z,10.85
2023-04-20T15:34:31.580Z,10.66
2023-04-20T15:40:33.553Z,10.28
2023-04-20T15:46:37.940Z,10.38
2023-04-20T15:52:39.990Z,10.11
2023-04-20T15:58:41.927Z,10.30
2023-04-20T16:04:43.945Z,9.96
2023-04-20T16:10:45.946Z,10.07
2023-04-20T16:16:47.845Z,10.23
2023-04-20T16:22:49.727Z,10.48
2023-04-20T16:28:52.676Z,10.91
2023-04-20T16:34:54.573Z,11.15
2023-04-20T16:40:56.499Z,10.78
2023-04-20T16:46:58.502Z,10.81
2023-04-20T16:53:00.713Z,10.74
2023-04-20T16:59:03.058Z,10.47
2023-04-20T17:05:07.197Z,10.63
2023-04-20T17:11:09.114Z,10.23
2023-04-20T17:17:11.003Z,10.35
2023-04-20T17:23:12.903Z,10.20
2023-04-20T17:29:14.882Z,10.16
2023-04-20T17:35:16.888Z,10.11
2023-04-20T17:41:18.799Z,9.96
2023-04-20T17:47:20.748Z,10.02
2023-04-20T17:53:22.765Z,10.09
2023-04-20T17:59:24.699Z,10.03
2023-04-20T18:05:27.195Z,9.85
2023-04-20T18:11:29.163Z,10.08
2023-04-20T18:17:31.123Z,9.88
2023-04-20T18:23:33.283Z,10.02
2023-04-20T18:29:35.449Z,10.07
2023-04-20T18:35:37.375Z,10.23
2023-04-20T18:41:39.304Z,10.09
2023-04-20T18:47:41.266Z,10.17
2023-04-20T18:53:43.268Z,10.09
2023-04-20T18:59:45.312Z,10.52
2023-04-20T19:05:47.304Z,10.22
2023-04-20T19:11:50.804Z,10.38
2023-04-20T19:17:55.344Z,10.55
2023-04-20T19:23:57.285Z,10.51
2023-04-20T19:29:59.206Z,10.29
2023-04-20T19:36:03.311Z,10.28
2023-04-20T19:42:05.244Z,10.24
2023-04-20T19:48:07.342Z,10.21
2023-04-20T19:54:09.316Z,10.37
2023-04-20T20:00:12.000Z,10.17
2023-04-20T20:06:14.012Z,10.32
2023-04-20T20:12:16.464Z,10.12
2023-04-20T20:18:18.854Z,10.04
2023-04-20T20:24:23.068Z,9.98
2023-04-20T20:30:25.005Z,9.85
2023-04-20T20:36:27.872Z,9.78
2023-04-20T20:42:30.389Z,9.82
2023-04-20T20:48:32.324Z,9.71
2023-04-20T20:54:34.267Z,9.68
2023-04-20T21:00:36.268Z,9.58
2023-04-20T21:06:38.216Z,9.39
2023-04-20T21:12:40.420Z,8.99
2023-04-20T21:18:42.350Z,8.68
2023-04-20T21:24:44.244Z,8.39
2023-04-20T21:30:46.171Z,8.10
2023-04-20T21:36:48.600Z,8.05
2023-04-20T21:42:50.500Z,8.11
2023-04-20T21:48:52.452Z,8.24
2023-04-20T21:54:54.344Z,8.21
2023-04-20T22:00:56.296Z,8.25
2023-04-20T22:06:58.194Z,8.17
2023-04-20T22:13:00.131Z,8.13
2023-04-20T22:19:02.418Z,8.24
2023-04-20T22:25:05.799Z,8.41
2023-04-20T22:31:07.818Z,8.60
2023-04-20T22:37:10.438Z,8.72
2023-04-20T22:43:12.404Z,8.75
2023-04-20T22:49:15.021Z,8.90
2023-04-20T22:55:16.960Z,9.19
2023-04-20T23:01:18.883Z,8.98
2023-04-20T23:07:21.240Z,9.32
2023-04-20T23:13:26.077Z,9.96
2023-04-20T23:19:28.313Z,10.52
2023-04-20T23:25:30.208Z,10.75
2023-04-20T23:31:32.086Z,11.15
2023-04-20T23:37:33.969Z,11.17
2023-04-20T23:43:37.157Z,11.22
2023-04-20T23:49:39.069Z,11.06
2023-04-20T23:55:40.944Z,11.11
